sensor_id;sensor_type;location;lat;lon;timestamp;P1;durP1;ratioP1;P2;durP2;ratioP2
62848;SDS011;48941;49.516;8.286;2023-03-03T00:00:26;11.27;;;6.25;;
62848;SDS011;48941;49.516;8.286;2023-03-03T00:02:54;12.27;;;6.22;;
62848;SDS011;48941;49.516;8.286;2023-03-03T00:05:25;12.35;;;6.72;;
62848;SDS011;48941;49.516;8.286;2023-03-03T00:07:54;14.55;;;6.20;;
62848;SDS011;48941;49.516;8.286;2023-03-03T00:10:22;10.88;;;5.93;;
62848;SDS011;48941;49.516;8.286;2023-03-03T00:12:50;11.20;;;6.38;;
62848;SDS011;48941;49.516;8.286;2023-03-03T00:15:19;10.80;;;5.90;;
62848;SDS011;48941;49.516;8.286;2023-03-03T00:17:48;10.35;;;6.20;;
62848;SDS011;48941;49.516;8.286;2023-03-03T00:20:21;12.13;;;6.70;;
62848;SDS011;48941;49.516;8.286;2023-03-03T00:22:59;10.98;;;6.25;;
62848;SDS011;48941;49.516;8.286;2023-03-03T00:25:41;11.98;;;5.82;;
62848;SDS011;48941;49.516;8.286;2023-03-03T00:28:19;12.82;;;6.28;;
62848;SDS011;48941;49.516;8.286;2023-03-03T00:30:50;11.32;;;6.30;;
62848;SDS011;48941;49.516;8.286;2023-03-03T00:36:21;11.68;;;6.13;;
62848;SDS011;48941;49.516;8.286;2023-03-03T00:38:55;10.27;;;5.97;;
62848;SDS011;48941;49.516;8.286;2023-03-03T00:41:37;10.38;;;5.85;;
62848;SDS011;48941;49.516;8.286;2023-03-03T00:44:21;12.63;;;7.07;;
62848;SDS011;48941;49.516;8.286;2023-03-03T00:47:00;13.15;;;6.60;;
62848;SDS011;48941;49.516;8.286;2023-03-03T00:49:38;12.88;;;6.75;;
62848;SDS011;48941;49.516;8.286;2023-03-03T00:52:09;13.85;;;6.80;;
62848;SDS011;48941;49.516;8.286;2023-03-03T00:54:42;15.45;;;6.43;;
62848;SDS011;48941;49.516;8.286;2023-03-03T00:57:10;12.38;;;6.32;;
62848;SDS011;48941;49.516;8.286;2023-03-03T00:59:38;12.85;;;6.68;;
62848;SDS011;48941;49.516;8.286;2023-03-03T01:02:06;14.32;;;6.78;;
62848;SDS011;48941;49.516;8.286;2023-03-03T01:04:34;14.77;;;7.18;;
62848;SDS011;48941;49.516;8.286;2023-03-03T01:07:01;11.82;;;6.32;;
62848;SDS011;48941;49.516;8.286;2023-03-03T01:09:29;17.75;;;6.80;;
62848;SDS011;48941;49.516;8.286;2023-03-03T01:11:58;13.43;;;6.95;;
62848;SDS011;48941;49.516;8.286;2023-03-03T01:14:26;12.80;;;7.57;;
62848;SDS011;48941;49.516;8.286;2023-03-03T01:16:54;16.40;;;7.47;;
62848;SDS011;48941;49.516;8.286;2023-03-03T01:19:22;14.57;;;7.45;;
62848;SDS011;48941;49.516;8.286;2023-03-03T01:21:50;12.45;;;6.50;;
62848;SDS011;48941;49.516;8.286;2023-03-03T01:24:18;11.27;;;7.03;;
62848;SDS011;48941;49.516;8.286;2023-03-03T01:26:45;12.93;;;6.80;;
62848;SDS011;48941;49.516;8.286;2023-03-03T01:29:15;13.25;;;7.50;;
62848;SDS011;48941;49.516;8.286;2023-03-03T01:31:42;13.27;;;7.30;;
62848;SDS011;48941;49.516;8.286;2023-03-03T01:34:10;13.50;;;7.43;;
62848;SDS011;48941;49.516;8.286;2023-03-03T01:36:38;13.20;;;7.50;;
62848;SDS011;48941;49.516;8.286;2023-03-03T01:39:06;12.25;;;7.63;;
62848;SDS011;48941;49.516;8.286;2023-03-03T01:41:33;15.07;;;7.82;;
62848;SDS011;48941;49.516;8.286;2023-03-03T01:44:01;13.52;;;7.80;;
62848;SDS011;48941;49.516;8.286;2023-03-03T01:46:37;15.38;;;7.80;;
62848;SDS011;48941;49.516;8.286;2023-03-03T01:49:13;14.40;;;7.50;;
62848;SDS011;48941;49.516;8.286;2023-03-03T01:51:49;13.35;;;7.40;;
62848;SDS011;48941;49.516;8.286;2023-03-03T01:54:21;16.77;;;8.00;;
62848;SDS011;48941;49.516;8.286;2023-03-03T01:56:55;13.07;;;7.28;;
62848;SDS011;48941;49.516;8.286;2023-03-03T01:59:27;14.90;;;7.72;;
62848;SDS011;48941;49.516;8.286;2023-03-03T02:01:59;14.30;;;8.10;;
62848;SDS011;48941;49.516;8.286;2023-03-03T02:04:27;15.80;;;8.35;;
62848;SDS011;48941;49.516;8.286;2023-03-03T02:06:56;12.70;;;6.82;;
62848;SDS011;48941;49.516;8.286;2023-03-03T02:09:29;15.93;;;8.30;;
62848;SDS011;48941;49.516;8.286;2023-03-03T02:12:06;16.50;;;8.52;;
62848;SDS011;48941;49.516;8.286;2023-03-03T02:14:37;16.35;;;8.75;;
62848;SDS011;48941;49.516;8.286;2023-03-03T02:17:06;17.73;;;8.20;;
62848;SDS011;48941;49.516;8.286;2023-03-03T02:19:35;13.82;;;8.82;;
62848;SDS011;48941;49.516;8.286;2023-03-03T02:22:11;14.02;;;8.05;;
62848;SDS011;48941;49.516;8.286;2023-03-03T02:24:44;16.00;;;8.27;;
62848;SDS011;48941;49.516;8.286;2023-03-03T02:27:16;19.20;;;9.23;;
62848;SDS011;48941;49.516;8.286;2023-03-03T02:29:44;18.45;;;9.15;;
62848;SDS011;48941;49.516;8.286;2023-03-03T02:32:12;20.30;;;9.23;;
62848;SDS011;48941;49.516;8.286;2023-03-03T02:34:44;20.10;;;8.85;;
62848;SDS011;48941;49.516;8.286;2023-03-03T02:37:14;16.15;;;9.27;;
62848;SDS011;48941;49.516;8.286;2023-03-03T02:39:42;15.75;;;8.73;;
62848;SDS011;48941;49.516;8.286;2023-03-03T02:42:12;13.05;;;8.40;;
62848;SDS011;48941;49.516;8.286;2023-03-03T02:44:46;18.73;;;9.20;;
62848;SDS011;48941;49.516;8.286;2023-03-03T02:47:14;17.38;;;9.75;;
62848;SDS011;48941;49.516;8.286;2023-03-03T02:49:42;16.15;;;9.60;;
62848;SDS011;48941;49.516;8.286;2023-03-03T02:52:10;17.17;;;9.95;;
62848;SDS011;48941;49.516;8.286;2023-03-03T02:54:40;20.58;;;9.27;;
62848;SDS011;48941;49.516;8.286;2023-03-03T02:57:07;19.13;;;10.00;;
62848;SDS011;48941;49.516;8.286;2023-03-03T02:59:35;17.27;;;10.68;;
62848;SDS011;48941;49.516;8.286;2023-03-03T03:02:04;20.05;;;10.07;;
62848;SDS011;48941;49.516;8.286;2023-03-03T03:04:32;19.60;;;9.70;;
62848;SDS011;48941;49.516;8.286;2023-03-03T03:07:00;20.15;;;11.05;;
62848;SDS011;48941;49.516;8.286;2023-03-03T03:09:28;19.20;;;10.18;;
62848;SDS011;48941;49.516;8.286;2023-03-03T03:11:56;19.98;;;10.80;;
62848;SDS011;48941;49.516;8.286;2023-03-03T03:14:27;18.10;;;10.38;;
62848;SDS011;48941;49.516;8.286;2023-03-03T03:16:55;18.05;;;10.02;;
62848;SDS011;48941;49.516;8.286;2023-03-03T03:19:24;19.70;;;10.45;;
62848;SDS011;48941;49.516;8.286;2023-03-03T03:21:52;22.48;;;10.57;;
62848;SDS011;48941;49.516;8.286;2023-03-03T03:24:20;21.20;;;11.07;;
62848;SDS011;48941;49.516;8.286;2023-03-03T03:26:48;15.70;;;9.88;;
62848;SDS011;48941;49.516;8.286;2023-03-03T03:29:15;20.02;;;10.63;;
62848;SDS011;48941;49.516;8.286;2023-03-03T03:31:43;19.88;;;10.82;;
62848;SDS011;48941;49.516;8.286;2023-03-03T03:34:11;19.10;;;11.07;;
62848;SDS011;48941;49.516;8.286;2023-03-03T03:36:40;20.77;;;11.30;;
62848;SDS011;48941;49.516;8.286;2023-03-03T03:39:08;22.77;;;11.80;;
62848;SDS011;48941;49.516;8.286;2023-03-03T03:41:36;20.40;;;10.63;;
62848;SDS011;48941;49.516;8.286;2023-03-03T03:44:04;28.15;;;12.32;;
62848;SDS011;48941;49.516;8.286;2023-03-03T03:46:31;19.08;;;11.27;;
62848;SDS011;48941;49.516;8.286;2023-03-03T03:48:59;24.30;;;12.23;;
62848;SDS011;48941;49.516;8.286;2023-03-03T03:51:27;26.52;;;12.23;;
62848;SDS011;48941;49.516;8.286;2023-03-03T03:53:56;25.25;;;11.80;;
62848;SDS011;48941;49.516;8.286;2023-03-03T03:56:24;21.00;;;12.35;;
62848;SDS011;48941;49.516;8.286;2023-03-03T03:58:51;20.58;;;11.45;;
62848;SDS011;48941;49.516;8.286;2023-03-03T04:01:19;24.15;;;12.32;;
62848;SDS011;48941;49.516;8.286;2023-03-03T04:03:47;19.52;;;11.25;;
62848;SDS011;48941;49.516;8.286;2023-03-03T04:06:15;24.02;;;12.43;;
62848;SDS011;48941;49.516;8.286;2023-03-03T04:08:43;23.77;;;12.30;;
62848;SDS011;48941;49.516;8.286;2023-03-03T04:11:12;23.30;;;12.57;;
62848;SDS011;48941;49.516;8.286;2023-03-03T04:13:40;25.88;;;12.63;;
62848;SDS011;48941;49.516;8.286;2023-03-03T04:16:07;23.67;;;12.85;;
62848;SDS011;48941;49.516;8.286;2023-03-03T04:18:35;24.65;;;12.35;;
62848;SDS011;48941;49.516;8.286;2023-03-03T04:21:03;21.42;;;12.27;;
62848;SDS011;48941;49.516;8.286;2023-03-03T04:23:31;23.52;;;12.43;;
62848;SDS011;48941;49.516;8.286;2023-03-03T04:25:59;24.33;;;13.27;;
62848;SDS011;48941;49.516;8.286;2023-03-03T04:28:28;28.27;;;13.90;;
62848;SDS011;48941;49.516;8.286;2023-03-03T04:30:56;25.92;;;13.88;;
62848;SDS011;48941;49.516;8.286;2023-03-03T04:33:24;23.52;;;13.73;;
62848;SDS011;48941;49.516;8.286;2023-03-03T04:35:52;25.92;;;13.68;;
62848;SDS011;48941;49.516;8.286;2023-03-03T04:38:20;24.13;;;13.13;;
62848;SDS011;48941;49.516;8.286;2023-03-03T04:40:48;27.75;;;14.15;;
62848;SDS011;48941;49.516;8.286;2023-03-03T04:43:15;24.65;;;13.68;;
62848;SDS011;48941;49.516;8.286;2023-03-03T04:45:44;26.60;;;14.15;;
62848;SDS011;48941;49.516;8.286;2023-03-03T04:48:12;24.95;;;14.88;;
62848;SDS011;48941;49.516;8.286;2023-03-03T04:50:40;25.75;;;14.05;;
62848;SDS011;48941;49.516;8.286;2023-03-03T04:53:08;26.92;;;15.00;;
62848;SDS011;48941;49.516;8.286;2023-03-03T04:55:36;24.73;;;14.15;;
62848;SDS011;48941;49.516;8.286;2023-03-03T04:58:04;27.50;;;14.85;;
62848;SDS011;48941;49.516;8.286;2023-03-03T05:00:32;31.42;;;15.55;;
62848;SDS011;48941;49.516;8.286;2023-03-03T05:03:02;28.50;;;14.85;;
62848;SDS011;48941;49.516;8.286;2023-03-03T05:05:29;31.00;;;16.38;;
62848;SDS011;48941;49.516;8.286;2023-03-03T05:07:57;34.47;;;16.35;;
62848;SDS011;48941;49.516;8.286;2023-03-03T05:10:25;34.03;;;16.10;;
62848;SDS011;48941;49.516;8.286;2023-03-03T05:12:53;28.17;;;15.23;;
62848;SDS011;48941;49.516;8.286;2023-03-03T05:15:21;34.55;;;17.30;;
62848;SDS011;48941;49.516;8.286;2023-03-03T05:17:49;36.08;;;17.10;;
62848;SDS011;48941;49.516;8.286;2023-03-03T05:20:20;32.75;;;16.50;;
62848;SDS011;48941;49.516;8.286;2023-03-03T05:22:47;29.85;;;17.00;;
62848;SDS011;48941;49.516;8.286;2023-03-03T05:25:15;32.08;;;17.10;;
62848;SDS011;48941;49.516;8.286;2023-03-03T05:27:43;31.65;;;17.45;;
62848;SDS011;48941;49.516;8.286;2023-03-03T05:30:11;31.92;;;16.95;;
62848;SDS011;48941;49.516;8.286;2023-03-03T05:32:39;33.92;;;17.88;;
62848;SDS011;48941;49.516;8.286;2023-03-03T05:35:07;32.60;;;17.17;;
62848;SDS011;48941;49.516;8.286;2023-03-03T05:37:37;32.72;;;16.88;;
62848;SDS011;48941;49.516;8.286;2023-03-03T05:40:08;34.17;;;16.55;;
62848;SDS011;48941;49.516;8.286;2023-03-03T05:42:37;32.58;;;17.70;;
62848;SDS011;48941;49.516;8.286;2023-03-03T05:45:05;35.95;;;17.75;;
62848;SDS011;48941;49.516;8.286;2023-03-03T05:47:33;33.78;;;17.42;;
62848;SDS011;48941;49.516;8.286;2023-03-03T05:50:01;37.35;;;17.40;;
62848;SDS011;48941;49.516;8.286;2023-03-03T05:52:29;34.85;;;17.73;;
62848;SDS011;48941;49.516;8.286;2023-03-03T05:54:58;34.47;;;17.80;;
62848;SDS011;48941;49.516;8.286;2023-03-03T05:57:26;36.38;;;18.02;;
62848;SDS011;48941;49.516;8.286;2023-03-03T05:59:54;38.15;;;18.17;;
62848;SDS011;48941;49.516;8.286;2023-03-03T06:02:22;36.03;;;18.38;;
62848;SDS011;48941;49.516;8.286;2023-03-03T06:04:49;33.92;;;18.17;;
62848;SDS011;48941;49.516;8.286;2023-03-03T06:07:17;37.30;;;18.77;;
62848;SDS011;48941;49.516;8.286;2023-03-03T06:09:45;39.10;;;19.30;;
62848;SDS011;48941;49.516;8.286;2023-03-03T06:12:14;41.53;;;19.75;;
62848;SDS011;48941;49.516;8.286;2023-03-03T06:14:42;35.33;;;18.48;;
62848;SDS011;48941;49.516;8.286;2023-03-03T06:17:10;38.30;;;19.00;;
62848;SDS011;48941;49.516;8.286;2023-03-03T06:19:38;40.33;;;19.50;;
62848;SDS011;48941;49.516;8.286;2023-03-03T06:22:06;32.20;;;16.90;;
62848;SDS011;48941;49.516;8.286;2023-03-03T06:24:35;34.85;;;18.38;;
62848;SDS011;48941;49.516;8.286;2023-03-03T06:27:02;36.30;;;18.58;;
62848;SDS011;48941;49.516;8.286;2023-03-03T06:29:32;32.55;;;16.75;;
62848;SDS011;48941;49.516;8.286;2023-03-03T06:31:59;37.00;;;18.75;;
62848;SDS011;48941;49.516;8.286;2023-03-03T06:34:27;37.63;;;18.75;;
62848;SDS011;48941;49.516;8.286;2023-03-03T06:36:55;36.63;;;17.58;;
62848;SDS011;48941;49.516;8.286;2023-03-03T06:39:23;36.10;;;18.10;;
62848;SDS011;48941;49.516;8.286;2023-03-03T06:41:51;36.42;;;18.35;;
62848;SDS011;48941;49.516;8.286;2023-03-03T06:44:19;35.03;;;17.98;;
62848;SDS011;48941;49.516;8.286;2023-03-03T06:46:48;37.15;;;18.63;;
62848;SDS011;48941;49.516;8.286;2023-03-03T06:49:16;45.00;;;20.73;;
62848;SDS011;48941;49.516;8.286;2023-03-03T06:51:44;35.65;;;18.27;;
62848;SDS011;48941;49.516;8.286;2023-03-03T06:54:13;33.67;;;18.23;;
62848;SDS011;48941;49.516;8.286;2023-03-03T06:56:42;37.95;;;19.27;;
62848;SDS011;48941;49.516;8.286;2023-03-03T06:59:13;42.22;;;19.83;;
62848;SDS011;48941;49.516;8.286;2023-03-03T07:01:42;38.40;;;19.40;;
62848;SDS011;48941;49.516;8.286;2023-03-03T07:04:16;38.50;;;19.08;;
62848;SDS011;48941;49.516;8.286;2023-03-03T07:09:22;36.67;;;17.77;;
62848;SDS011;48941;49.516;8.286;2023-03-03T07:11:52;37.75;;;19.15;;
62848;SDS011;48941;49.516;8.286;2023-03-03T07:14:27;35.35;;;18.17;;
62848;SDS011;48941;49.516;8.286;2023-03-03T07:16:57;38.97;;;19.05;;
62848;SDS011;48941;49.516;8.286;2023-03-03T07:19:30;36.65;;;18.55;;
62848;SDS011;48941;49.516;8.286;2023-03-03T07:22:00;41.58;;;20.15;;
62848;SDS011;48941;49.516;8.286;2023-03-03T07:24:40;40.10;;;19.45;;
62848;SDS011;48941;49.516;8.286;2023-03-03T07:27:10;39.47;;;20.35;;
62848;SDS011;48941;49.516;8.286;2023-03-03T07:29:41;40.50;;;20.23;;
62848;SDS011;48941;49.516;8.286;2023-03-03T07:32:15;43.88;;;20.35;;
62848;SDS011;48941;49.516;8.286;2023-03-03T07:34:52;41.67;;;20.13;;
62848;SDS011;48941;49.516;8.286;2023-03-03T07:37:26;39.60;;;20.10;;
62848;SDS011;48941;49.516;8.286;2023-03-03T07:39:57;46.13;;;20.30;;
62848;SDS011;48941;49.516;8.286;2023-03-03T07:42:26;42.83;;;20.55;;
62848;SDS011;48941;49.516;8.286;2023-03-03T07:45:19;44.08;;;21.02;;
62848;SDS011;48941;49.516;8.286;2023-03-03T07:47:51;41.10;;;21.10;;
62848;SDS011;48941;49.516;8.286;2023-03-03T07:50:26;40.47;;;20.98;;
62848;SDS011;48941;49.516;8.286;2023-03-03T07:52:54;42.03;;;21.17;;
62848;SDS011;48941;49.516;8.286;2023-03-03T07:55:26;41.30;;;20.88;;
62848;SDS011;48941;49.516;8.286;2023-03-03T07:58:05;38.83;;;19.95;;
62848;SDS011;48941;49.516;8.286;2023-03-03T08:03:47;39.75;;;20.52;;
62848;SDS011;48941;49.516;8.286;2023-03-03T08:06:34;43.92;;;21.67;;
62848;SDS011;48941;49.516;8.286;2023-03-03T08:09:24;40.97;;;21.35;;
62848;SDS011;48941;49.516;8.286;2023-03-03T08:11:57;44.28;;;20.95;;
62848;SDS011;48941;49.516;8.286;2023-03-03T08:14:29;36.78;;;19.85;;
62848;SDS011;48941;49.516;8.286;2023-03-03T08:17:00;38.03;;;20.20;;
62848;SDS011;48941;49.516;8.286;2023-03-03T08:19:33;42.08;;;21.13;;
62848;SDS011;48941;49.516;8.286;2023-03-03T08:22:08;39.22;;;20.55;;
62848;SDS011;48941;49.516;8.286;2023-03-03T08:24:40;44.13;;;21.80;;
62848;SDS011;48941;49.516;8.286;2023-03-03T08:27:08;44.28;;;22.17;;
62848;SDS011;48941;49.516;8.286;2023-03-03T08:29:36;40.33;;;21.55;;
62848;SDS011;48941;49.516;8.286;2023-03-03T08:32:04;40.30;;;21.98;;
62848;SDS011;48941;49.516;8.286;2023-03-03T08:34:32;39.42;;;21.40;;
62848;SDS011;48941;49.516;8.286;2023-03-03T08:37:00;39.33;;;21.05;;
62848;SDS011;48941;49.516;8.286;2023-03-03T08:39:29;43.65;;;21.80;;
62848;SDS011;48941;49.516;8.286;2023-03-03T08:41:58;42.20;;;22.05;;
62848;SDS011;48941;49.516;8.286;2023-03-03T08:44:25;40.58;;;20.95;;
62848;SDS011;48941;49.516;8.286;2023-03-03T08:46:53;41.00;;;20.80;;
62848;SDS011;48941;49.516;8.286;2023-03-03T08:49:21;43.38;;;22.30;;
62848;SDS011;48941;49.516;8.286;2023-03-03T08:51:49;43.83;;;22.20;;
62848;SDS011;48941;49.516;8.286;2023-03-03T08:54:17;43.92;;;22.05;;
62848;SDS011;48941;49.516;8.286;2023-03-03T08:56:47;45.80;;;22.08;;
62848;SDS011;48941;49.516;8.286;2023-03-03T08:59:15;46.47;;;22.73;;
62848;SDS011;48941;49.516;8.286;2023-03-03T09:01:42;42.38;;;21.83;;
62848;SDS011;48941;49.516;8.286;2023-03-03T09:04:11;45.17;;;22.75;;
62848;SDS011;48941;49.516;8.286;2023-03-03T09:06:38;46.20;;;23.73;;
62848;SDS011;48941;49.516;8.286;2023-03-03T09:09:06;43.35;;;22.70;;
62848;SDS011;48941;49.516;8.286;2023-03-03T09:11:34;48.17;;;23.58;;
62848;SDS011;48941;49.516;8.286;2023-03-03T09:14:05;44.80;;;22.80;;
62848;SDS011;48941;49.516;8.286;2023-03-03T09:16:37;41.80;;;22.38;;
62848;SDS011;48941;49.516;8.286;2023-03-03T09:19:15;44.80;;;23.10;;
62848;SDS011;48941;49.516;8.286;2023-03-03T09:21:47;42.78;;;21.27;;
62848;SDS011;48941;49.516;8.286;2023-03-03T09:24:18;39.45;;;21.90;;
62848;SDS011;48941;49.516;8.286;2023-03-03T09:26:52;49.13;;;23.70;;
62848;SDS011;48941;49.516;8.286;2023-03-03T09:29:25;40.67;;;21.73;;
62848;SDS011;48941;49.516;8.286;2023-03-03T09:31:55;43.47;;;22.27;;
62848;SDS011;48941;49.516;8.286;2023-03-03T09:34:27;43.83;;;22.83;;
62848;SDS011;48941;49.516;8.286;2023-03-03T09:37:17;42.53;;;21.77;;
62848;SDS011;48941;49.516;8.286;2023-03-03T09:39:49;44.22;;;23.13;;
62848;SDS011;48941;49.516;8.286;2023-03-03T09:42:21;44.65;;;23.10;;
62848;SDS011;48941;49.516;8.286;2023-03-03T09:45:08;41.22;;;22.55;;
62848;SDS011;48941;49.516;8.286;2023-03-03T09:50:45;44.95;;;22.58;;
62848;SDS011;48941;49.516;8.286;2023-03-03T09:53:23;55.30;;;23.33;;
62848;SDS011;48941;49.516;8.286;2023-03-03T09:56:08;46.85;;;24.50;;
62848;SDS011;48941;49.516;8.286;2023-03-03T09:58:53;43.88;;;21.73;;
62848;SDS011;48941;49.516;8.286;2023-03-03T10:01:39;46.70;;;23.83;;
62848;SDS011;48941;49.516;8.286;2023-03-03T10:04:18;42.90;;;23.75;;
62848;SDS011;48941;49.516;8.286;2023-03-03T10:07:05;43.35;;;22.67;;
62848;SDS011;48941;49.516;8.286;2023-03-03T10:09:47;45.42;;;23.02;;
62848;SDS011;48941;49.516;8.286;2023-03-03T10:12:30;41.25;;;22.55;;
62848;SDS011;48941;49.516;8.286;2023-03-03T10:15:07;40.55;;;23.23;;
62848;SDS011;48941;49.516;8.286;2023-03-03T10:17:49;45.70;;;22.60;;
62848;SDS011;48941;49.516;8.286;2023-03-03T10:20:23;40.92;;;22.67;;
62848;SDS011;48941;49.516;8.286;2023-03-03T10:23:18;40.95;;;22.45;;
62848;SDS011;48941;49.516;8.286;2023-03-03T10:25:51;41.15;;;20.83;;
62848;SDS011;48941;49.516;8.286;2023-03-03T10:28:28;40.20;;;21.23;;
62848;SDS011;48941;49.516;8.286;2023-03-03T10:31:22;39.08;;;21.20;;
62848;SDS011;48941;49.516;8.286;2023-03-03T10:34:04;42.13;;;21.73;;
62848;SDS011;48941;49.516;8.286;2023-03-03T10:36:47;42.25;;;20.52;;
62848;SDS011;48941;49.516;8.286;2023-03-03T10:42:20;37.08;;;20.83;;
62848;SDS011;48941;49.516;8.286;2023-03-03T10:45:14;38.90;;;21.23;;
62848;SDS011;48941;49.516;8.286;2023-03-03T10:48:04;38.15;;;20.35;;
62848;SDS011;48941;49.516;8.286;2023-03-03T10:50:51;35.35;;;19.63;;
62848;SDS011;48941;49.516;8.286;2023-03-03T10:53:26;41.30;;;20.95;;
62848;SDS011;48941;49.516;8.286;2023-03-03T10:56:11;37.53;;;20.52;;
62848;SDS011;48941;49.516;8.286;2023-03-03T10:58:50;34.97;;;19.50;;
62848;SDS011;48941;49.516;8.286;2023-03-03T11:01:29;39.60;;;21.42;;
62848;SDS011;48941;49.516;8.286;2023-03-03T11:04:09;40.85;;;20.65;;
62848;SDS011;48941;49.516;8.286;2023-03-03T11:07:00;36.45;;;21.10;;
62848;SDS011;48941;49.516;8.286;2023-03-03T11:09:35;36.47;;;19.65;;
62848;SDS011;48941;49.516;8.286;2023-03-03T11:12:31;37.85;;;20.88;;
62848;SDS011;48941;49.516;8.286;2023-03-03T11:15:13;38.97;;;20.75;;
62848;SDS011;48941;49.516;8.286;2023-03-03T11:17:53;37.00;;;20.08;;
62848;SDS011;48941;49.516;8.286;2023-03-03T11:20:31;36.08;;;20.10;;
62848;SDS011;48941;49.516;8.286;2023-03-03T11:23:10;41.00;;;20.77;;
62848;SDS011;48941;49.516;8.286;2023-03-03T11:26:05;35.67;;;20.05;;
62848;SDS011;48941;49.516;8.286;2023-03-03T11:28:41;35.30;;;18.58;;
62848;SDS011;48941;49.516;8.286;2023-03-03T11:31:26;40.65;;;21.17;;
62848;SDS011;48941;49.516;8.286;2023-03-03T11:34:03;36.45;;;19.38;;
62848;SDS011;48941;49.516;8.286;2023-03-03T11:36:41;33.40;;;18.48;;
62848;SDS011;48941;49.516;8.286;2023-03-03T11:39:17;40.90;;;18.98;;
62848;SDS011;48941;49.516;8.286;2023-03-03T11:41:51;32.67;;;18.08;;
62848;SDS011;48941;49.516;8.286;2023-03-03T11:44:28;37.83;;;20.20;;
62848;SDS011;48941;49.516;8.286;2023-03-03T11:47:00;32.17;;;18.55;;
62848;SDS011;48941;49.516;8.286;2023-03-03T11:49:35;35.83;;;19.38;;
62848;SDS011;48941;49.516;8.286;2023-03-03T11:52:12;35.33;;;19.50;;
62848;SDS011;48941;49.516;8.286;2023-03-03T11:54:53;33.38;;;19.15;;
62848;SDS011;48941;49.516;8.286;2023-03-03T11:57:25;33.95;;;18.05;;
62848;SDS011;48941;49.516;8.286;2023-03-03T12:00:05;34.75;;;19.25;;
62848;SDS011;48941;49.516;8.286;2023-03-03T12:02:49;33.92;;;18.38;;
62848;SDS011;48941;49.516;8.286;2023-03-03T12:05:45;34.55;;;19.15;;
62848;SDS011;48941;49.516;8.286;2023-03-03T12:08:30;36.20;;;19.45;;
62848;SDS011;48941;49.516;8.286;2023-03-03T12:11:11;32.53;;;18.95;;
62848;SDS011;48941;49.516;8.286;2023-03-03T12:13:51;34.42;;;19.20;;
62848;SDS011;48941;49.516;8.286;2023-03-03T12:16:31;38.13;;;18.90;;
62848;SDS011;48941;49.516;8.286;2023-03-03T12:19:13;37.42;;;18.77;;
62848;SDS011;48941;49.516;8.286;2023-03-03T12:21:53;33.55;;;19.27;;
62848;SDS011;48941;49.516;8.286;2023-03-03T12:24:38;34.03;;;18.77;;
62848;SDS011;48941;49.516;8.286;2023-03-03T12:27:16;38.22;;;19.42;;
62848;SDS011;48941;49.516;8.286;2023-03-03T12:29:51;35.50;;;19.70;;
62848;SDS011;48941;49.516;8.286;2023-03-03T12:32:32;34.20;;;18.25;;
62848;SDS011;48941;49.516;8.286;2023-03-03T12:35:16;33.95;;;17.65;;
62848;SDS011;48941;49.516;8.286;2023-03-03T12:37:52;34.38;;;18.20;;
62848;SDS011;48941;49.516;8.286;2023-03-03T12:40:28;33.35;;;18.35;;
62848;SDS011;48941;49.516;8.286;2023-03-03T12:43:06;31.63;;;18.33;;
62848;SDS011;48941;49.516;8.286;2023-03-03T12:45:46;31.55;;;17.23;;
62848;SDS011;48941;49.516;8.286;2023-03-03T12:48:23;34.55;;;18.17;;
62848;SDS011;48941;49.516;8.286;2023-03-03T12:51:04;31.15;;;17.77;;
62848;SDS011;48941;49.516;8.286;2023-03-03T12:53:39;30.38;;;17.60;;
62848;SDS011;48941;49.516;8.286;2023-03-03T12:56:17;31.25;;;17.23;;
62848;SDS011;48941;49.516;8.286;2023-03-03T12:58:55;30.48;;;18.15;;
62848;SDS011;48941;49.516;8.286;2023-03-03T13:01:36;30.63;;;18.00;;
62848;SDS011;48941;49.516;8.286;2023-03-03T13:04:10;33.22;;;18.30;;
62848;SDS011;48941;49.516;8.286;2023-03-03T13:06:56;30.25;;;16.17;;
62848;SDS011;48941;49.516;8.286;2023-03-03T13:09:32;30.52;;;16.88;;
62848;SDS011;48941;49.516;8.286;2023-03-03T13:12:13;26.33;;;16.08;;
62848;SDS011;48941;49.516;8.286;2023-03-03T13:14:56;29.27;;;16.80;;
62848;SDS011;48941;49.516;8.286;2023-03-03T13:17:33;28.73;;;16.52;;
62848;SDS011;48941;49.516;8.286;2023-03-03T13:20:11;30.30;;;16.50;;
62848;SDS011;48941;49.516;8.286;2023-03-03T13:22:49;28.95;;;16.15;;
62848;SDS011;48941;49.516;8.286;2023-03-03T13:25:33;30.13;;;16.35;;
62848;SDS011;48941;49.516;8.286;2023-03-03T13:28:11;29.13;;;16.15;;
62848;SDS011;48941;49.516;8.286;2023-03-03T13:30:48;25.88;;;16.50;;
62848;SDS011;48941;49.516;8.286;2023-03-03T13:33:21;26.50;;;15.20;;
62848;SDS011;48941;49.516;8.286;2023-03-03T13:35:53;27.73;;;15.35;;
62848;SDS011;48941;49.516;8.286;2023-03-03T13:38:23;27.77;;;15.85;;
62848;SDS011;48941;49.516;8.286;2023-03-03T13:40:56;29.10;;;16.45;;
62848;SDS011;48941;49.516;8.286;2023-03-03T13:43:31;29.27;;;15.60;;
62848;SDS011;48941;49.516;8.286;2023-03-03T13:46:10;27.83;;;16.42;;
62848;SDS011;48941;49.516;8.286;2023-03-03T13:48:45;28.67;;;16.10;;
62848;SDS011;48941;49.516;8.286;2023-03-03T13:51:27;25.85;;;14.48;;
62848;SDS011;48941;49.516;8.286;2023-03-03T13:54:01;28.02;;;14.50;;
62848;SDS011;48941;49.516;8.286;2023-03-03T13:56:46;26.92;;;15.13;;
62848;SDS011;48941;49.516;8.286;2023-03-03T13:59:27;26.13;;;14.82;;
62848;SDS011;48941;49.516;8.286;2023-03-03T14:02:05;25.08;;;14.55;;
62848;SDS011;48941;49.516;8.286;2023-03-03T14:04:57;27.95;;;15.75;;
62848;SDS011;48941;49.516;8.286;2023-03-03T14:07:29;24.10;;;14.35;;
62848;SDS011;48941;49.516;8.286;2023-03-03T14:10:05;23.80;;;14.35;;
62848;SDS011;48941;49.516;8.286;2023-03-03T14:12:39;23.35;;;14.20;;
62848;SDS011;48941;49.516;8.286;2023-03-03T14:15:15;23.20;;;13.52;;
62848;SDS011;48941;49.516;8.286;2023-03-03T14:17:56;25.77;;;13.85;;
62848;SDS011;48941;49.516;8.286;2023-03-03T14:20:32;27.45;;;14.82;;
62848;SDS011;48941;49.516;8.286;2023-03-03T14:23:07;22.45;;;13.20;;
62848;SDS011;48941;49.516;8.286;2023-03-03T14:25:53;24.27;;;12.82;;
62848;SDS011;48941;49.516;8.286;2023-03-03T14:28:24;22.10;;;14.13;;
62848;SDS011;48941;49.516;8.286;2023-03-03T14:30:54;24.80;;;13.65;;
62848;SDS011;48941;49.516;8.286;2023-03-03T14:33:34;22.42;;;13.57;;
62848;SDS011;48941;49.516;8.286;2023-03-03T14:36:03;24.25;;;13.73;;
62848;SDS011;48941;49.516;8.286;2023-03-03T14:38:47;24.30;;;13.30;;
62848;SDS011;48941;49.516;8.286;2023-03-03T14:41:18;23.65;;;13.60;;
62848;SDS011;48941;49.516;8.286;2023-03-03T14:43:55;25.98;;;13.32;;
62848;SDS011;48941;49.516;8.286;2023-03-03T14:46:30;23.02;;;13.50;;
62848;SDS011;48941;49.516;8.286;2023-03-03T14:49:03;23.63;;;12.88;;
62848;SDS011;48941;49.516;8.286;2023-03-03T14:51:40;22.65;;;13.35;;
62848;SDS011;48941;49.516;8.286;2023-03-03T14:54:19;23.45;;;12.85;;
62848;SDS011;48941;49.516;8.286;2023-03-03T14:56:57;22.20;;;12.23;;
62848;SDS011;48941;49.516;8.286;2023-03-03T14:59:29;25.83;;;13.02;;
62848;SDS011;48941;49.516;8.286;2023-03-03T15:02:00;23.58;;;12.52;;
62848;SDS011;48941;49.516;8.286;2023-03-03T15:04:48;22.42;;;13.02;;
62848;SDS011;48941;49.516;8.286;2023-03-03T15:07:19;21.95;;;11.32;;
62848;SDS011;48941;49.516;8.286;2023-03-03T15:09:58;25.35;;;12.93;;
62848;SDS011;48941;49.516;8.286;2023-03-03T15:12:33;24.08;;;12.55;;